Time;durP1;ratioP1;P1;durP2;ratioP2;P2;SDS_P1;SDS_P2;PMS_P1;PMS_P2;Temp;Humidity;BMP_temperature;BMP_pressure;BME280_temperature;BME280_humidity;BME280_pressure;Samples;Min_cycle;Max_cycle;Signal;HPM_P1;HPM_P2
2024/02/22 00:02:07;;;;;;;8.35;3.30;;;;;;;;;;4987195;28;20334;-92
2024/02/22 00:05:12;;;;;;;10.38;3.70;;;;;;;;;;4985074;28;20209;-92
2024/02/22 00:08:19;;;;;;;10.82;4.15;;;;;;;;;;4983497;28;20189;-92
2024/02/22 00:11:25;;;;;;;10.70;4.90;;;;;;;;;;4995095;28;20208;-90
2024/02/22 00:14:30;;;;;;;11.10;4.05;;;;;;;;;;5004319;28;20228;-91
2024/02/22 00:17:35;;;;;;;9.90;3.72;;;;;;;;;;4986211;28;20225;-92
2024/02/22 00:20:41;;;;;;;16.83;4.90;;;;;;;;;;4982806;28;20233;-91
2024/02/22 00:23:48;;;;;;;12.65;4.32;;;;;;;;;;4987411;28;20189;-92
2024/02/22 00:26:53;;;;;;;10.32;4.15;;;;;;;;;;4986229;28;20205;-92
2024/02/22 00:29:58;;;;;;;8.50;3.80;;;;;;;;;;4986769;28;20193;-92
2024/02/22 00:33:03;;;;;;;10.20;3.58;;;;;;;;;;4986217;28;20202;-91
2024/02/22 00:36:08;;;;;;;10.85;4.10;;;;;;;;;;4986228;28;20665;-92
2024/02/22 00:39:14;;;;;;;8.98;3.78;;;;;;;;;;4986686;28;20226;-92
2024/02/22 00:42:20;;;;;;;9.50;4.20;;;;;;;;;;4969191;28;20191;-91
2024/02/22 00:45:25;;;;;;;15.50;3.85;;;;;;;;;;4967967;29;20250;-92
2024/02/22 00:48:30;;;;;;;8.43;3.63;;;;;;;;;;4969744;28;20182;-91
2024/02/22 00:51:35;;;;;;;10.70;3.75;;;;;;;;;;4971595;28;20318;-92
2024/02/22 00:54:42;;;;;;;9.43;3.65;;;;;;;;;;4970547;28;20673;-91
2024/02/22 00:57:48;;;;;;;12.55;4.00;;;;;;;;;;4971022;28;20269;-92
2024/02/22 01:00:54;;;;;;;7.60;3.53;;;;;;;;;;4970666;28;20298;-91
2024/02/22 01:04:00;;;;;;;10.07;4.07;;;;;;;;;;4971298;28;20270;-92
2024/02/22 01:07:06;;;;;;;14.32;4.35;;;;;;;;;;4971118;28;20682;-92
2024/02/22 01:10:13;;;;;;;9.32;3.50;;;;;;;;;;4970742;28;20202;-91
2024/02/22 01:13:19;;;;;;;16.98;4.00;;;;;;;;;;4970558;28;20202;-92
2024/02/22 01:16:24;;;;;;;9.63;3.50;;;;;;;;;;4968784;28;20202;-91
2024/02/22 01:19:29;;;;;;;10.85;3.78;;;;;;;;;;4969320;28;20218;-92
2024/02/22 01:22:34;;;;;;;8.57;3.63;;;;;;;;;;4969702;28;20272;-92
2024/02/22 01:25:41;;;;;;;9.85;3.83;;;;;;;;;;4968759;28;20187;-92
2024/02/22 01:28:46;;;;;;;10.90;3.58;;;;;;;;;;4969490;28;20199;-92
2024/02/22 01:31:51;;;;;;;9.30;3.78;;;;;;;;;;4967193;28;20190;-92
2024/02/22 01:34:56;;;;;;;7.88;3.72;;;;;;;;;;4982404;28;20266;-92
2024/02/22 01:38:01;;;;;;;7.38;3.55;;;;;;;;;;4986799;28;20194;-93
2024/02/22 01:41:08;;;;;;;8.52;3.60;;;;;;;;;;4986993;28;20244;-92
2024/02/22 01:44:13;;;;;;;13.48;4.53;;;;;;;;;;4988300;28;20257;-91
2024/02/22 01:47:19;;;;;;;8.30;3.40;;;;;;;;;;4987576;28;20194;-92
2024/02/22 01:50:25;;;;;;;9.43;3.53;;;;;;;;;;4987640;28;20178;-92
2024/02/22 01:53:33;;;;;;;10.93;4.03;;;;;;;;;;4988557;28;20197;-92
2024/02/22 01:56:39;;;;;;;11.02;3.72;;;;;;;;;;4988719;28;20218;-92
2024/02/22 01:59:45;;;;;;;12.95;3.53;;;;;;;;;;4988037;28;20226;-91
2024/02/22 02:02:50;;;;;;;12.02;3.92;;;;;;;;;;4987729;28;20262;-90
2024/02/22 02:05:55;;;;;;;10.40;3.67;;;;;;;;;;4986840;28;20600;-92
2024/02/22 02:09:00;;;;;;;16.35;3.78;;;;;;;;;;4988058;28;20250;-92
2024/02/22 02:12:08;;;;;;;7.22;3.40;;;;;;;;;;4987919;28;20253;-92
2024/02/22 02:15:13;;;;;;;10.98;3.63;;;;;;;;;;4986008;28;20311;-92
2024/02/22 02:18:21;;;;;;;12.45;3.78;;;;;;;;;;4987379;28;20247;-92
2024/02/22 02:21:28;;;;;;;10.48;3.60;;;;;;;;;;4986372;28;20221;-90
2024/02/22 02:24:34;;;;;;;12.93;3.65;;;;;;;;;;4986015;28;20254;-91
2024/02/22 02:27:41;;;;;;;12.20;3.70;;;;;;;;;;4987465;28;20194;-91
2024/02/22 02:30:46;;;;;;;9.23;3.72;;;;;;;;;;4987012;28;20602;-91
2024/02/22 02:48:09;;;;;;;11.18;3.78;;;;;;;;;;5005028;28;20269;-91
2024/02/22 02:51:15;;;;;;;10.48;3.50;;;;;;;;;;5007014;28;20193;-90
2024/02/22 02:54:21;;;;;;;15.35;4.25;;;;;;;;;;5007497;28;20201;-91
2024/02/22 02:57:26;;;;;;;8.80;3.53;;;;;;;;;;5006407;28;20257;-90
2024/02/22 03:00:31;;;;;;;10.65;4.30;;;;;;;;;;5005415;28;20237;-92
2024/02/22 03:03:39;;;;;;;9.18;3.90;;;;;;;;;;5006491;28;20200;-92
2024/02/22 03:06:44;;;;;;;17.33;5.13;;;;;;;;;;5005901;28;20226;-93
2024/02/22 03:09:50;;;;;;;16.15;4.10;;;;;;;;;;5006677;28;20232;-92
2024/02/22 03:12:55;;;;;;;10.82;4.13;;;;;;;;;;5007421;28;20316;-90
2024/02/22 03:16:00;;;;;;;8.38;4.18;;;;;;;;;;5006311;28;20237;-92
2024/02/22 03:19:07;;;;;;;9.65;3.50;;;;;;;;;;5006062;28;20264;-90
2024/02/22 03:22:14;;;;;;;8.68;3.30;;;;;;;;;;5005347;28;20273;-91
2024/02/22 03:25:19;;;;;;;6.85;3.22;;;;;;;;;;4986025;28;20674;-91
2024/02/22 03:28:24;;;;;;;8.98;3.75;;;;;;;;;;4986803;28;20286;-91
2024/02/22 03:31:32;;;;;;;7.65;3.67;;;;;;;;;;4984956;28;20237;-91
2024/02/22 03:34:39;;;;;;;11.60;4.20;;;;;;;;;;4986147;28;20209;-91
2024/02/22 03:37:44;;;;;;;6.13;3.60;;;;;;;;;;4985925;28;20272;-90
2024/02/22 03:40:49;;;;;;;7.82;3.45;;;;;;;;;;4984938;28;20217;-92
2024/02/22 03:43:55;;;;;;;9.13;3.58;;;;;;;;;;4986310;28;20229;-91
2024/02/22 03:47:00;;;;;;;16.70;4.35;;;;;;;;;;4984798;28;20212;-91
2024/02/22 03:50:08;;;;;;;15.60;3.92;;;;;;;;;;4985083;28;20178;-90
2024/02/22 03:53:15;;;;;;;12.95;3.78;;;;;;;;;;4986170;28;20170;-91
2024/02/22 03:56:20;;;;;;;11.52;3.67;;;;;;;;;;4987737;28;20189;-91
2024/02/22 03:59:26;;;;;;;11.93;3.55;;;;;;;;;;4995697;28;20181;-90
2024/02/22 04:02:31;;;;;;;11.52;3.63;;;;;;;;;;5006382;28;20325;-91
2024/02/22 04:05:38;;;;;;;13.95;4.40;;;;;;;;;;4990416;28;20177;-92
2024/02/22 04:08:43;;;;;;;9.95;3.63;;;;;;;;;;4990439;28;20222;-92
2024/02/22 04:11:48;;;;;;;6.35;3.45;;;;;;;;;;4991450;28;20220;-91
2024/02/22 04:14:53;;;;;;;13.15;3.50;;;;;;;;;;4992074;28;20185;-93
2024/02/22 04:17:58;;;;;;;7.60;3.42;;;;;;;;;;4991146;28;20263;-92
2024/02/22 04:21:05;;;;;;;9.18;3.65;;;;;;;;;;4990941;28;20218;-90
2024/02/22 04:24:10;;;;;;;8.60;3.88;;;;;;;;;;4991402;28;20217;-91
2024/02/22 04:27:15;;;;;;;11.82;4.10;;;;;;;;;;4991725;28;20222;-91
2024/02/22 04:30:20;;;;;;;13.75;3.55;;;;;;;;;;4990447;28;20353;-92
2024/02/22 04:33:25;;;;;;;10.10;3.70;;;;;;;;;;4990359;28;20187;-92
2024/02/22 04:36:32;;;;;;;12.43;3.38;;;;;;;;;;4989885;28;20182;-92
2024/02/22 04:39:37;;;;;;;13.38;4.05;;;;;;;;;;4987656;28;20169;-93
2024/02/22 04:42:42;;;;;;;11.73;3.90;;;;;;;;;;4987926;28;20569;-92
2024/02/22 04:45:47;;;;;;;11.45;3.72;;;;;;;;;;4996789;28;20205;-91
2024/02/22 04:48:53;;;;;;;10.27;3.53;;;;;;;;;;5009973;28;20185;-91
2024/02/22 04:52:03;;;;;;;10.48;3.53;;;;;;;;;;5009549;28;20193;-91
2024/02/22 04:55:08;;;;;;;9.13;3.30;;;;;;;;;;5007259;28;20201;-91
2024/02/22 04:58:13;;;;;;;10.33;3.87;;;;;;;;;;5010498;28;20173;-91
2024/02/22 05:01:19;;;;;;;9.27;3.60;;;;;;;;;;5007830;28;20288;-91
2024/02/22 05:04:24;;;;;;;15.75;3.40;;;;;;;;;;5009149;28;20201;-91
2024/02/22 05:07:30;;;;;;;7.88;3.42;;;;;;;;;;5010180;28;20193;-91
2024/02/22 05:10:36;;;;;;;10.27;4.43;;;;;;;;;;5007102;28;20312;-91
2024/02/22 05:13:42;;;;;;;12.10;3.50;;;;;;;;;;5007944;28;20169;-90
2024/02/22 05:16:48;;;;;;;8.52;3.90;;;;;;;;;;5008380;28;20197;-92
2024/02/22 05:19:53;;;;;;;13.02;3.85;;;;;;;;;;4989832;28;20277;-91
2024/02/22 05:22:59;;;;;;;10.45;3.72;;;;;;;;;;4989561;28;20241;-91
2024/02/22 05:26:04;;;;;;;8.90;3.50;;;;;;;;;;4991772;28;20205;-91
2024/02/22 05:29:10;;;;;;;15.52;3.88;;;;;;;;;;4988337;28;20209;-91
2024/02/22 05:32:16;;;;;;;11.27;3.80;;;;;;;;;;4990534;28;20205;-90
2024/02/22 05:35:21;;;;;;;10.90;3.77;;;;;;;;;;4990400;28;20205;-93
2024/02/22 05:38:28;;;;;;;14.57;4.55;;;;;;;;;;4989463;28;20325;-92
2024/02/22 05:41:33;;;;;;;17.63;3.88;;;;;;;;;;4990356;28;20295;-92
2024/02/22 05:44:38;;;;;;;14.85;4.88;;;;;;;;;;4990409;28;20206;-92
2024/02/22 05:47:43;;;;;;;10.15;4.07;;;;;;;;;;4988847;28;20222;-93
2024/02/22 05:50:48;;;;;;;12.13;3.88;;;;;;;;;;4991009;28;20198;-92
2024/02/22 05:53:55;;;;;;;15.90;3.95;;;;;;;;;;5003518;28;20205;-91
2024/02/22 05:57:01;;;;;;;10.07;4.25;;;;;;;;;;4989339;28;20210;-91
2024/02/22 06:00:09;;;;;;;9.65;3.97;;;;;;;;;;5004652;28;20787;-91
2024/02/22 06:03:17;;;;;;;13.38;3.90;;;;;;;;;;5010429;28;20221;-92
2024/02/22 06:06:23;;;;;;;8.98;3.75;;;;;;;;;;5011464;28;20269;-91
2024/02/22 06:09:30;;;;;;;9.52;3.83;;;;;;;;;;5009264;28;20224;-93
2024/02/22 06:12:35;;;;;;;13.60;4.35;;;;;;;;;;5008715;28;20262;-93
2024/02/22 06:15:42;;;;;;;11.70;4.23;;;;;;;;;;5009362;28;20193;-92
2024/02/22 06:22:08;;;;;;;11.45;3.65;;;;;;;;;;4989447;28;20221;-93
2024/02/22 06:25:15;;;;;;;14.23;4.55;;;;;;;;;;4999993;28;20174;-92
2024/02/22 06:28:21;;;;;;;14.33;4.00;;;;;;;;;;5008523;28;20193;-91
2024/02/22 06:31:26;;;;;;;7.97;3.60;;;;;;;;;;5007615;28;20249;-92
2024/02/22 06:34:33;;;;;;;12.67;3.93;;;;;;;;;;4995129;28;20194;-93
2024/02/22 06:49:57;;;;;;;15.52;4.30;;;;;;;;;;4986933;28;20237;-93
2024/02/22 06:53:03;;;;;;;13.20;4.03;;;;;;;;;;4989185;28;20186;-92
2024/02/22 06:56:09;;;;;;;11.15;4.32;;;;;;;;;;4986546;28;20256;-92
2024/02/22 06:59:16;;;;;;;18.35;4.88;;;;;;;;;;4992909;28;20225;-93
2024/02/22 07:02:22;;;;;;;14.45;4.50;;;;;;;;;;4987142;28;20322;-91
2024/02/22 07:05:29;;;;;;;10.93;4.30;;;;;;;;;;4990984;28;20217;-92
2024/02/22 07:08:36;;;;;;;12.93;4.32;;;;;;;;;;4986720;28;20261;-92
2024/02/22 07:11:41;;;;;;;12.95;4.78;;;;;;;;;;4985358;28;20213;-92
2024/02/22 07:14:46;;;;;;;9.43;4.70;;;;;;;;;;4986673;28;20217;-90
2024/02/22 07:17:51;;;;;;;16.05;4.88;;;;;;;;;;4986224;28;20287;-93
2024/02/22 07:21:00;;;;;;;11.50;4.68;;;;;;;;;;4984573;28;20205;-91
2024/02/22 07:24:05;;;;;;;10.27;4.50;;;;;;;;;;4984359;28;20190;-93
2024/02/22 07:27:11;;;;;;;12.73;4.65;;;;;;;;;;4985743;28;20247;-91
2024/02/22 07:30:16;;;;;;;18.48;4.93;;;;;;;;;;4988383;28;20205;-93
2024/02/22 07:33:20;;;;;;;9.95;4.63;;;;;;;;;;4991408;28;20301;-92
2024/02/22 07:36:38;;;;;;;10.88;4.45;;;;;;;;;;4990522;28;20270;-93
2024/02/22 07:39:43;;;;;;;8.75;3.70;;;;;;;;;;4988704;28;20208;-91
2024/02/22 07:42:49;;;;;;;10.57;4.05;;;;;;;;;;4990507;28;20221;-92
2024/02/22 07:45:54;;;;;;;11.32;4.43;;;;;;;;;;4990676;28;20251;-91
2024/02/22 07:52:22;;;;;;;14.63;5.90;;;;;;;;;;4992447;28;20202;-92
2024/02/22 07:55:27;;;;;;;10.93;4.20;;;;;;;;;;4989673;28;20194;-92
2024/02/22 07:58:35;;;;;;;9.73;3.95;;;;;;;;;;4989794;28;20661;-92
2024/02/22 08:01:42;;;;;;;12.30;3.92;;;;;;;;;;4991093;28;20245;-90
2024/02/22 08:04:50;;;;;;;12.02;4.47;;;;;;;;;;4992841;28;20187;-93
2024/02/22 08:07:57;;;;;;;9.10;3.90;;;;;;;;;;4989544;28;20263;-91
2024/02/22 08:11:03;;;;;;;11.65;4.25;;;;;;;;;;4989646;28;20198;-92
2024/02/22 08:14:08;;;;;;;11.10;4.93;;;;;;;;;;4991108;28;20190;-92
2024/02/22 08:17:17;;;;;;;12.95;4.47;;;;;;;;;;4989615;28;20201;-92
2024/02/22 08:20:22;;;;;;;9.98;3.63;;;;;;;;;;4988532;28;20194;-93
2024/02/22 08:23:30;;;;;;;10.07;3.80;;;;;;;;;;4987810;28;20237;-91
2024/02/22 08:26:35;;;;;;;13.75;4.18;;;;;;;;;;4988483;28;20275;-92
2024/02/22 08:29:40;;;;;;;10.80;4.15;;;;;;;;;;4989907;28;20189;-91
2024/02/22 08:32:45;;;;;;;8.55;4.18;;;;;;;;;;4990790;28;20185;-93
2024/02/22 08:36:12;;;;;;;14.18;4.70;;;;;;;;;;4992070;28;20194;-93
2024/02/22 08:39:19;;;;;;;11.00;4.45;;;;;;;;;;4992048;28;20197;-92
2024/02/22 08:42:25;;;;;;;12.18;4.30;;;;;;;;;;4992118;28;20257;-91
2024/02/22 08:45:30;;;;;;;18.15;8.00;;;;;;;;;;4992406;28;20250;-92
2024/02/22 08:48:36;;;;;;;17.02;5.85;;;;;;;;;;4989950;28;20624;-91
2024/02/22 08:51:42;;;;;;;13.45;5.07;;;;;;;;;;4987808;28;20197;-93
2024/02/22 08:54:49;;;;;;;11.50;4.82;;;;;;;;;;4991397;28;20178;-90
2024/02/22 08:57:55;;;;;;;16.13;5.50;;;;;;;;;;4991369;28;20231;-92
2024/02/22 09:06:57;;;;;;;12.98;4.82;;;;;;;;;;5876255;23;20222;-93
2024/02/22 09:10:04;;;;;;;14.25;5.03;;;;;;;;;;4990511;28;20209;-92
2024/02/22 09:13:10;;;;;;;10.98;4.60;;;;;;;;;;4990415;28;20656;-92
2024/02/22 09:16:16;;;;;;;10.43;4.65;;;;;;;;;;4990455;28;20234;-92
2024/02/22 09:19:23;;;;;;;14.45;6.95;;;;;;;;;;4992437;28;20177;-91
2024/02/22 09:22:30;;;;;;;20.58;7.45;;;;;;;;;;4990721;28;20209;-90
2024/02/22 09:25:37;;;;;;;18.27;5.38;;;;;;;;;;4991258;28;20218;-89
2024/02/22 09:28:43;;;;;;;11.45;5.03;;;;;;;;;;4992166;28;20194;-92
2024/02/22 09:31:48;;;;;;;13.63;5.28;;;;;;;;;;4995696;28;20197;-92
2024/02/22 09:34:54;;;;;;;13.52;5.15;;;;;;;;;;4992867;28;20190;-91
2024/02/22 09:37:59;;;;;;;12.40;5.10;;;;;;;;;;4989737;28;20186;-92
2024/02/22 09:41:08;;;;;;;16.17;5.20;;;;;;;;;;4988594;28;20202;-92
2024/02/22 09:44:14;;;;;;;15.55;5.65;;;;;;;;;;4988981;28;20218;-92
2024/02/22 09:47:20;;;;;;;14.10;5.40;;;;;;;;;;4990242;28;20351;-93
2024/02/22 09:50:25;;;;;;;14.38;4.47;;;;;;;;;;4989428;28;20182;-93
2024/02/22 09:53:31;;;;;;;10.90;5.00;;;;;;;;;;4989015;28;20198;-93
2024/02/22 09:56:40;;;;;;;13.00;5.38;;;;;;;;;;4988717;28;20205;-91
2024/02/22 09:59:50;;;;;;;10.52;5.15;;;;;;;;;;4989472;28;20259;-92
2024/02/22 10:02:55;;;;;;;19.10;5.82;;;;;;;;;;4989469;28;20233;-92
2024/02/22 10:06:01;;;;;;;15.40;5.72;;;;;;;;;;4990093;28;20169;-92
2024/02/22 10:09:06;;;;;;;12.43;5.32;;;;;;;;;;4989592;28;20744;-92
2024/02/22 10:12:23;;;;;;;14.88;5.80;;;;;;;;;;4990961;28;20208;-92
2024/02/22 12:30:09;;;;;;;12.30;5.93;;;;;;;;;;5477993;23;20250;-93
2024/02/22 12:33:22;;;;;;;13.07;5.75;;;;;;;;;;4991227;28;20189;-94
2024/02/22 12:36:29;;;;;;;11.30;5.30;;;;;;;;;;4990975;28;20202;-92
2024/02/22 12:39:34;;;;;;;10.05;5.40;;;;;;;;;;4991943;28;20715;-92
2024/02/22 12:42:39;;;;;;;12.63;4.88;;;;;;;;;;4990383;28;20224;-92
2024/02/22 12:45:46;;;;;;;11.27;5.15;;;;;;;;;;4990207;28;20205;-92
2024/02/22 12:48:52;;;;;;;14.07;5.10;;;;;;;;;;4990277;28;20209;-92
2024/02/22 12:52:06;;;;;;;12.93;4.93;;;;;;;;;;4991452;28;20273;-93
2024/02/22 12:55:11;;;;;;;10.07;4.55;;;;;;;;;;4991627;28;20673;-92
2024/02/22 12:58:17;;;;;;;9.75;4.50;;;;;;;;;;4990538;28;20386;-91
2024/02/22 13:01:24;;;;;;;13.93;4.78;;;;;;;;;;5087494;23;20241;-93
2024/02/22 13:04:30;;;;;;;8.80;4.25;;;;;;;;;;4990430;28;20178;-92
2024/02/22 13:07:37;;;;;;;12.82;4.32;;;;;;;;;;4991916;28;20181;-93
2024/02/22 13:10:43;;;;;;;11.35;5.32;;;;;;;;;;4992214;28;20185;-92
2024/02/22 13:13:50;;;;;;;12.68;5.13;;;;;;;;;;4984433;28;20217;-93
2024/02/22 13:46:15;;;;;;;14.93;4.68;;;;;;;;;;5431462;23;20242;-91
2024/02/22 13:49:21;;;;;;;11.23;4.80;;;;;;;;;;4991797;28;20185;-92
2024/02/22 13:52:27;;;;;;;13.43;5.25;;;;;;;;;;4990429;28;20190;-92
2024/02/22 13:55:33;;;;;;;10.23;5.00;;;;;;;;;;4992167;28;20182;-92
2024/02/22 13:58:39;;;;;;;10.77;4.75;;;;;;;;;;4990582;28;20215;-91
2024/02/22 14:01:48;;;;;;;12.65;6.57;;;;;;;;;;4989998;28;20655;-92
2024/02/22 14:04:53;;;;;;;10.60;4.63;;;;;;;;;;4991534;28;20198;-91
2024/02/22 14:08:01;;;;;;;10.02;4.28;;;;;;;;;;4990400;28;20190;-91
2024/02/22 14:11:06;;;;;;;11.05;4.35;;;;;;;;;;4991205;28;20221;-92
2024/02/22 14:14:11;;;;;;;14.60;4.32;;;;;;;;;;4989898;28;20555;-92
2024/02/22 14:20:49;;;;;;;10.43;3.85;;;;;;;;;;4989723;28;20193;-93
2024/02/22 14:27:17;;;;;;;9.05;3.70;;;;;;;;;;4991229;28;20198;-92
2024/02/22 14:30:23;;;;;;;9.60;3.90;;;;;;;;;;4989342;28;20193;-93
2024/02/22 14:33:34;;;;;;;9.38;4.43;;;;;;;;;;4990492;28;20257;-91
2024/02/22 14:36:40;;;;;;;8.10;3.97;;;;;;;;;;4991392;28;20198;-93
2024/02/22 14:39:46;;;;;;;9.20;4.13;;;;;;;;;;4989807;28;20269;-92
2024/02/22 14:42:51;;;;;;;11.18;4.40;;;;;;;;;;4987130;28;20210;-92
2024/02/22 14:45:57;;;;;;;7.07;3.55;;;;;;;;;;4992680;28;20193;-92
2024/02/22 14:49:04;;;;;;;7.00;4.10;;;;;;;;;;4989464;28;20251;-92
2024/02/22 14:52:11;;;;;;;11.30;4.03;;;;;;;;;;4988343;28;20326;-91
2024/02/22 14:55:16;;;;;;;7.90;3.80;;;;;;;;;;4988783;28;20221;-92
2024/02/22 14:58:23;;;;;;;9.20;3.85;;;;;;;;;;4987630;28;20190;-92
2024/02/22 15:01:28;;;;;;;11.27;4.32;;;;;;;;;;4987627;28;20173;-91
2024/02/22 15:04:36;;;;;;;12.23;4.32;;;;;;;;;;4989118;28;20181;-93
2024/02/22 15:07:42;;;;;;;8.60;4.15;;;;;;;;;;4989297;28;20265;-92
2024/02/22 15:10:48;;;;;;;9.15;3.90;;;;;;;;;;4989708;28;20194;-92
2024/02/22 15:13:55;;;;;;;13.10;4.47;;;;;;;;;;4988990;28;20186;-93
2024/02/22 15:17:03;;;;;;;8.15;4.20;;;;;;;;;;4988286;28;20193;-92
2024/02/22 15:20:12;;;;;;;8.98;4.68;;;;;;;;;;4989866;28;20193;-91
2024/02/22 15:23:18;;;;;;;8.32;4.60;;;;;;;;;;4989961;28;20225;-92
2024/02/22 15:26:25;;;;;;;12.13;5.63;;;;;;;;;;4989468;28;20194;-92
2024/02/22 15:29:32;;;;;;;13.15;6.03;;;;;;;;;;4989244;28;20190;-93
2024/02/22 15:32:38;;;;;;;14.25;5.93;;;;;;;;;;4989551;28;20205;-92
2024/02/22 15:35:45;;;;;;;9.88;3.88;;;;;;;;;;4993469;28;20287;-93
2024/02/22 16:17:02;;;;;;;19.30;6.20;;;;;;;;;;5758774;23;20218;-93
2024/02/22 16:23:32;;;;;;;11.82;6.25;;;;;;;;;;4995388;28;20221;-92
2024/02/22 16:26:38;;;;;;;14.82;6.32;;;;;;;;;;4993163;28;20605;-93
2024/02/22 16:36:45;;;;;;;13.80;6.30;;;;;;;;;;4995305;28;20190;-93
2024/02/22 16:43:10;;;;;;;22.60;8.85;;;;;;;;;;4994270;28;20248;-93
2024/02/22 18:50:19;;;;;;;29.52;11.85;;;;;;;;;;4942391;28;20308;-93
2024/02/22 18:53:26;;;;;;;28.90;12.20;;;;;;;;;;4954814;28;20312;-92
2024/02/22 18:56:32;;;;;;;28.75;12.57;;;;;;;;;;4965376;28;20179;-93
2024/02/22 18:59:40;;;;;;;25.70;11.48;;;;;;;;;;4952300;28;20203;-92
2024/02/22 19:02:50;;;;;;;27.98;12.80;;;;;;;;;;4952876;28;20202;-93
2024/02/22 19:05:59;;;;;;;20.85;11.25;;;;;;;;;;4966828;28;20190;-94
2024/02/22 19:09:05;;;;;;;30.40;13.15;;;;;;;;;;4953021;28;20199;-93
2024/02/22 19:12:20;;;;;;;20.15;10.65;;;;;;;;;;4953144;28;20199;-92
2024/02/22 19:15:26;;;;;;;29.98;14.48;;;;;;;;;;4964443;28;20244;-93
2024/02/22 19:18:33;;;;;;;22.90;11.07;;;;;;;;;;4952936;28;20174;-92
2024/02/22 19:21:53;;;;;;;26.85;11.65;;;;;;;;;;4953999;28;20220;-93
2024/02/22 19:25:06;;;;;;;22.95;11.32;;;;;;;;;;4965439;28;20263;-93
2024/02/22 19:28:13;;;;;;;24.92;10.73;;;;;;;;;;4953712;28;20203;-94
2024/02/22 19:34:38;;;;;;;21.25;10.73;;;;;;;;;;4954323;29;20182;-92
2024/02/22 19:37:47;;;;;;;19.83;9.52;;;;;;;;;;4952142;28;20187;-93
2024/02/22 19:41:06;;;;;;;20.08;9.18;;;;;;;;;;4963641;28;20190;-93
2024/02/22 19:44:13;;;;;;;19.83;10.23;;;;;;;;;;4961874;28;20210;-93
2024/02/22 19:47:19;;;;;;;21.50;11.18;;;;;;;;;;4950424;28;20192;-91
2024/02/22 19:50:27;;;;;;;23.23;10.15;;;;;;;;;;4961931;28;20187;-93
2024/02/22 19:53:33;;;;;;;23.67;10.95;;;;;;;;;;4951048;28;20670;-90
2024/02/22 19:56:41;;;;;;;19.48;9.50;;;;;;;;;;4963396;28;20195;-92
2024/02/22 19:59:50;;;;;;;23.77;11.00;;;;;;;;;;4963150;28;20211;-93
2024/02/22 20:02:56;;;;;;;21.92;10.55;;;;;;;;;;4962504;28;20247;-92
2024/02/22 20:06:04;;;;;;;19.17;10.98;;;;;;;;;;4950122;28;20228;-91
2024/02/22 20:09:09;;;;;;;18.95;10.57;;;;;;;;;;4931334;29;20678;-90
2024/02/22 20:12:19;;;;;;;18.67;10.55;;;;;;;;;;4942669;28;20559;-91
2024/02/22 20:15:28;;;;;;;23.48;10.75;;;;;;;;;;4962279;28;20207;-91
2024/02/22 20:18:33;;;;;;;21.80;10.50;;;;;;;;;;4962640;28;20199;-91
2024/02/22 20:24:59;;;;;;;27.40;11.02;;;;;;;;;;4951383;28;20223;-90
2024/02/22 20:28:11;;;;;;;22.27;10.45;;;;;;;;;;4962573;28;20190;-91
2024/02/22 20:31:17;;;;;;;19.90;9.25;;;;;;;;;;4961665;28;20214;-89
2024/02/22 20:34:24;;;;;;;18.88;8.40;;;;;;;;;;4962363;28;20195;-91
2024/02/22 20:37:30;;;;;;;20.25;8.65;;;;;;;;;;4950901;28;20216;-93
2024/02/22 20:40:35;;;;;;;18.02;8.63;;;;;;;;;;4965205;28;20227;-92
2024/02/22 20:43:42;;;;;;;19.05;9.32;;;;;;;;;;4954054;28;20227;-90
2024/02/22 20:46:47;;;;;;;19.15;9.65;;;;;;;;;;4953655;29;20206;-91
2024/02/22 20:49:53;;;;;;;18.23;9.45;;;;;;;;;;4952797;28;20179;-91
2024/02/22 20:52:59;;;;;;;23.05;10.10;;;;;;;;;;4954099;28;20175;-92
2024/02/22 20:56:07;;;;;;;20.25;9.82;;;;;;;;;;4957761;28;20183;-92
2024/02/22 20:59:20;;;;;;;18.40;9.43;;;;;;;;;;4957987;28;20188;-91
2024/02/22 21:05:58;;;;;;;16.65;8.52;;;;;;;;;;4956732;28;20215;-91
2024/02/22 23:30:05;;;;;;;19.40;9.75;;;;;;;;;;5012128;26;20261;-90
2024/02/22 23:33:11;;;;;;;19.00;9.60;;;;;;;;;;5006013;28;20317;-92
2024/02/22 23:36:20;;;;;;;18.90;10.43;;;;;;;;;;5012010;28;20172;-90
